Terminal Aerodrome Forecast
Issued by NWS

Home | Current Version | Previous Version | Text Only | Print | Product List | Glossary On
Versions: 1 2 3 4 5 6 7 8 9 10 11 12 13 14 15 16 17 18 19 20 21 22 23 24 25 26 27 28 29 30 31 32 33 34 35 36
000
FTUS42 KGSP 271142
TAFHKY
TAF
KHKY 271142Z 2712/2812 23006KT P6SM FEW070 BKN250
     FM271800 23007KT P6SM BKN060
     FM272100 24006KT P6SM BKN060 PROB30 2721/2803 4SM -TSRA
      OVC040CB
     FM280600 27003KT P6SM BKN060=

USA.gov is the U.S. government's official web portal to all federal, state and local government web resources and services.